createdAt,value
2018-05-10T00:01:32.000Z,99.80
2018-05-10T00:03:59.483Z,99.80
2018-05-10T00:06:26.962Z,99.90
2018-05-10T00:08:55.208Z,99.90
2018-05-10T00:11:22.706Z,99.90
2018-05-10T00:13:50.181Z,99.90
2018-05-10T00:16:17.655Z,99.90
2018-05-10T00:18:45.143Z,99.80
2018-05-10T00:21:12.615Z,99.80
2018-05-10T00:23:40.103Z,99.70
2018-05-10T00:26:07.572Z,99.40
2018-05-10T00:28:35.042Z,99.10
2018-05-10T00:31:02.547Z,99.00
2018-05-10T00:33:30.025Z,98.90
2018-05-10T00:35:58.276Z,99.00
2018-05-10T00:38:26.509Z,98.90
2018-05-10T00:40:53.983Z,98.90
2018-05-10T00:43:21.478Z,98.90
2018-05-10T00:45:49.732Z,99.10
2018-05-10T00:48:17.227Z,99.00
2018-05-10T00:50:45.464Z,99.30
2018-05-10T00:53:12.987Z,99.30
2018-05-10T00:55:40.468Z,99.40
2018-05-10T00:58:07.942Z,99.70
2018-05-10T01:00:35.426Z,99.90
2018-05-10T01:03:03.668Z,99.90
2018-05-10T01:05:31.172Z,99.90
2018-05-10T01:07:59.447Z,99.90
2018-05-10T01:10:27.684Z,99.90
2018-05-10T01:12:55.161Z,99.90
2018-05-10T01:15:23.403Z,99.90
2018-05-10T01:17:50.910Z,99.90
2018-05-10T01:20:19.144Z,99.90
2018-05-10T01:22:46.645Z,99.90
2018-05-10T01:25:14.879Z,99.90
2018-05-10T01:27:42.355Z,99.90
2018-05-10T01:30:09.835Z,99.90
2018-05-10T01:32:38.084Z,99.90
2018-05-10T01:35:17.325Z,99.90
2018-05-10T01:37:44.791Z,99.90
2018-05-10T01:40:13.069Z,99.90
2018-05-10T01:42:40.541Z,99.90
2018-05-10T01:45:08.792Z,99.90
2018-05-10T01:47:36.289Z,99.90
2018-05-10T01:50:04.525Z,99.90
2018-05-10T01:52:32.027Z,99.90
2018-05-10T01:54:59.507Z,99.90
2018-05-10T01:57:26.995Z,99.90
2018-05-10T01:59:54.469Z,99.90
2018-05-10T02:02:22.708Z,99.90
2018-05-10T02:04:50.208Z,99.90
2018-05-10T02:07:17.683Z,99.90
2018-05-10T02:09:45.936Z,99.90
2018-05-10T02:12:14.172Z,99.90
2018-05-10T02:14:41.722Z,99.90
2018-05-10T02:17:09.933Z,99.90
2018-05-10T02:19:37.415Z,99.90
2018-05-10T02:22:05.668Z,99.90
2018-05-10T02:24:33.138Z,99.90
2018-05-10T02:27:01.403Z,99.90
2018-05-10T02:29:28.868Z,99.90
2018-05-10T02:31:56.377Z,99.90
2018-05-10T02:34:23.876Z,99.90
2018-05-10T02:36:51.346Z,99.90
2018-05-10T02:39:18.835Z,99.90
2018-05-10T02:41:46.315Z,99.90
2018-05-10T02:44:13.800Z,99.90
2018-05-10T02:46:41.269Z,99.90
2018-05-10T02:49:08.765Z,99.90
2018-05-10T02:51:37.006Z,99.90
2018-05-10T02:54:04.489Z,99.90
2018-05-10T02:56:32.738Z,99.90
2018-05-10T02:59:00.230Z,99.90
2018-05-10T03:01:28.493Z,99.90
2018-05-10T03:03:55.972Z,99.90
2018-05-10T03:06:24.228Z,99.90
2018-05-10T03:08:52.496Z,99.90
2018-05-10T03:11:19.966Z,99.90
2018-05-10T03:13:48.223Z,99.90
2018-05-10T03:16:15.706Z,99.90
2018-05-10T03:18:43.969Z,99.90
2018-05-10T03:21:12.204Z,99.90
2018-05-10T03:23:39.725Z,99.90
2018-05-10T03:26:07.997Z,99.90
2018-05-10T03:28:36.311Z,99.90
2018-05-10T03:31:03.741Z,99.90
2018-05-10T03:33:31.974Z,99.90
2018-05-10T03:35:59.456Z,99.90
2018-05-10T03:38:27.699Z,99.90
2018-05-10T03:40:55.191Z,99.90
2018-05-10T03:43:23.440Z,99.90
2018-05-10T03:45:50.918Z,99.90
2018-05-10T03:48:18.404Z,99.90
2018-05-10T03:50:46.644Z,99.90
2018-05-10T03:53:14.167Z,99.90
2018-05-10T03:55:41.640Z,99.90
2018-05-10T03:58:09.140Z,99.90
2018-05-10T04:00:37.389Z,99.90
2018-05-10T04:06:28.843Z,99.90
2018-05-10T04:09:08.147Z,99.90
2018-05-10T04:11:35.629Z,99.90
2018-05-10T04:14:03.120Z,99.90
2018-05-10T04:16:31.359Z,99.90
2018-05-10T04:18:58.855Z,99.90
2018-05-10T04:21:27.087Z,99.90
2018-05-10T04:23:54.578Z,99.90
2018-05-10T04:26:22.065Z,99.90
2018-05-10T04:28:49.536Z,99.90
2018-05-10T04:31:17.021Z,99.90
2018-05-10T04:33:44.492Z,99.90
2018-05-10T04:36:11.980Z,99.90
2018-05-10T04:38:40.275Z,99.90
2018-05-10T04:41:07.703Z,99.90
2018-05-10T04:43:35.186Z,99.90
2018-05-10T04:46:02.671Z,99.90
2018-05-10T04:48:30.160Z,99.90
2018-05-10T04:50:57.636Z,99.90
2018-05-10T04:53:25.900Z,99.90
2018-05-10T04:55:53.372Z,99.90
2018-05-10T04:58:21.611Z,99.90
2018-05-10T05:00:49.091Z,99.90
2018-05-10T05:03:16.659Z,99.90
2018-05-10T05:05:44.821Z,99.90
2018-05-10T05:08:12.292Z,99.90
2018-05-10T05:10:39.781Z,99.90
2018-05-10T05:13:07.253Z,99.90
2018-05-10T05:15:34.748Z,99.90
2018-05-10T05:18:02.234Z,99.90
2018-05-10T05:20:30.475Z,99.90
2018-05-10T05:22:57.987Z,99.90
2018-05-10T05:25:25.897Z,99.90
2018-05-10T05:27:53.393Z,99.90
2018-05-10T05:30:21.648Z,99.90
2018-05-10T05:32:49.120Z,99.90
2018-05-10T05:35:17.383Z,99.90
2018-05-10T05:37:44.855Z,99.90
2018-05-10T05:40:12.336Z,99.90
2018-05-10T05:42:40.572Z,99.90
2018-05-10T05:45:08.064Z,99.90
2018-05-10T05:47:36.304Z,99.90
2018-05-10T05:50:03.772Z,99.90
2018-05-10T05:52:31.258Z,99.90
2018-05-10T05:54:59.595Z,99.90
2018-05-10T05:57:27.016Z,99.90
2018-05-10T05:59:54.483Z,99.90
2018-05-10T06:02:22.001Z,99.90
2018-05-10T06:04:50.237Z,99.90
2018-05-10T06:07:17.705Z,99.90
2018-05-10T06:09:45.196Z,99.90
2018-05-10T06:12:13.443Z,99.90
2018-05-10T06:14:40.947Z,99.90
2018-05-10T06:17:08.433Z,99.90
2018-05-10T06:19:35.927Z,99.90
2018-05-10T06:22:03.404Z,99.90
2018-05-10T06:24:31.641Z,99.90
2018-05-10T06:26:59.132Z,99.90
2018-05-10T06:29:28.137Z,99.90
2018-05-10T06:31:56.392Z,99.90
2018-05-10T06:34:23.867Z,99.90
2018-05-10T06:36:52.140Z,99.90
2018-05-10T06:39:20.381Z,99.90
2018-05-10T06:41:47.848Z,99.90
2018-05-10T06:44:15.337Z,99.90
2018-05-10T06:46:43.591Z,99.90
2018-05-10T06:49:11.077Z,99.90
2018-05-10T06:51:39.319Z,99.90
2018-05-10T06:54:06.807Z,99.90
2018-05-10T06:56:35.121Z,99.90
2018-05-10T06:59:02.600Z,99.90
2018-05-10T07:01:30.088Z,99.90
2018-05-10T07:03:59.064Z,99.90
2018-05-10T07:06:26.561Z,99.90
2018-05-10T07:08:54.801Z,99.90
2018-05-10T07:11:22.284Z,99.90
2018-05-10T07:13:50.525Z,99.90
2018-05-10T07:16:17.994Z,99.90
2018-05-10T07:18:45.486Z,99.90
2018-05-10T07:21:13.728Z,99.90
2018-05-10T07:23:41.212Z,99.90
2018-05-10T07:26:09.451Z,99.90
2018-05-10T07:28:36.957Z,99.90
2018-05-10T07:31:05.189Z,99.90
2018-05-10T07:33:32.663Z,99.90
2018-05-10T07:36:00.148Z,99.90
2018-05-10T07:38:28.381Z,99.90
2018-05-10T07:40:55.868Z,99.90
2018-05-10T07:43:23.336Z,99.90
2018-05-10T07:45:51.592Z,99.90
2018-05-10T07:48:19.065Z,99.90
2018-05-10T07:50:47.304Z,99.90
2018-05-10T07:53:14.855Z,99.90
2018-05-10T07:55:42.323Z,99.90
2018-05-10T07:58:09.821Z,99.90
2018-05-10T08:00:38.066Z,99.90
2018-05-10T08:03:05.569Z,99.90
2018-05-10T08:05:33.082Z,99.90
2018-05-10T08:08:00.553Z,99.90
2018-05-10T08:10:29.559Z,99.50
2018-05-10T08:12:57.027Z,99.40
2018-05-10T08:15:25.282Z,98.80
2018-05-10T08:17:53.564Z,98.30
2018-05-10T08:20:21.057Z,98.30
2018-05-10T08:22:48.540Z,98.10
2018-05-10T08:25:16.015Z,97.90
2018-05-10T08:27:46.461Z,98.30
2018-05-10T08:30:14.828Z,97.80
2018-05-10T08:32:43.084Z,96.40
2018-05-10T08:35:10.597Z,96.40
2018-05-10T08:37:38.840Z,95.90
2018-05-10T08:40:06.344Z,95.80
2018-05-10T08:42:34.648Z,94.00
2018-05-10T08:45:02.208Z,94.00
2018-05-10T08:47:29.680Z,92.40
2018-05-10T08:49:57.159Z,91.40
2018-05-10T08:52:24.663Z,90.80
2018-05-10T08:54:52.134Z,90.50
2018-05-10T08:57:19.638Z,90.70
2018-05-10T08:59:47.183Z,90.10
2018-05-10T09:02:14.680Z,85.50
2018-05-10T09:04:42.923Z,84.00
2018-05-10T09:07:10.404Z,83.90
2018-05-10T09:09:37.906Z,84.70
2018-05-10T09:12:05.404Z,82.70
2018-05-10T09:14:32.887Z,82.80
2018-05-10T09:17:01.144Z,82.20
2018-05-10T09:19:28.616Z,82.10
2018-05-10T09:21:56.897Z,85.30
2018-05-10T09:24:24.402Z,85.20
2018-05-10T09:26:51.893Z,86.40
2018-05-10T09:29:19.396Z,87.20
2018-05-10T09:31:46.951Z,87.60
2018-05-10T09:34:14.722Z,86.60
2018-05-10T09:36:42.190Z,87.00
2018-05-10T09:39:09.708Z,86.30
2018-05-10T09:41:37.190Z,84.80
2018-05-10T09:44:05.462Z,82.80
2018-05-10T09:46:33.024Z,82.70
2018-05-10T09:49:00.523Z,83.50
2018-05-10T09:51:28.041Z,81.90
2018-05-10T09:53:56.300Z,83.10
2018-05-10T09:56:24.584Z,84.00
2018-05-10T09:58:52.843Z,85.40
2018-05-10T10:01:20.339Z,85.40
2018-05-10T10:03:47.838Z,86.00
2018-05-10T10:06:15.432Z,86.80
2018-05-10T10:08:42.883Z,85.90
2018-05-10T10:11:11.196Z,84.40
2018-05-10T10:13:38.693Z,84.40
2018-05-10T10:16:06.212Z,85.20
2018-05-10T10:18:33.735Z,85.50
2018-05-10T10:21:01.298Z,85.40
2018-05-10T10:23:28.780Z,85.00
2018-05-10T10:25:57.014Z,85.30
2018-05-10T10:28:24.505Z,85.20
2018-05-10T10:30:52.769Z,86.20
2018-05-10T10:33:20.246Z,86.10
2018-05-10T10:35:48.488Z,85.90
2018-05-10T10:38:16.107Z,85.90
2018-05-10T10:40:44.802Z,87.50
2018-05-10T10:43:12.292Z,87.50
2018-05-10T10:45:40.031Z,88.00
2018-05-10T10:48:09.084Z,88.30
2018-05-10T10:50:37.441Z,88.90
2018-05-10T10:53:04.946Z,88.90
2018-05-10T10:55:32.453Z,90.00
2018-05-10T10:57:59.935Z,90.50
2018-05-10T11:00:28.184Z,91.90
2018-05-10T11:02:55.649Z,91.80
2018-05-10T11:05:23.127Z,92.20
2018-05-10T11:07:51.386Z,93.00
2018-05-10T11:10:20.356Z,93.30
2018-05-10T11:12:47.849Z,93.20
2018-05-10T11:15:15.323Z,93.60
2018-05-10T11:17:44.238Z,93.90
2018-05-10T11:20:11.711Z,93.80
2018-05-10T11:22:39.241Z,94.10
2018-05-10T11:25:06.728Z,94.20
2018-05-10T11:27:34.249Z,94.30
2018-05-10T11:30:02.557Z,94.60
2018-05-10T11:32:30.017Z,94.60
2018-05-10T11:34:57.565Z,95.20
2018-05-10T11:37:25.042Z,96.00
2018-05-10T11:39:52.518Z,96.70
2018-05-10T11:42:20.004Z,97.40
2018-05-10T11:44:48.257Z,97.70
2018-05-10T11:47:15.748Z,97.70
2018-05-10T11:49:44.009Z,97.50
2018-05-10T11:52:12.657Z,97.50
2018-05-10T11:54:40.124Z,97.50
2018-05-10T11:57:07.593Z,97.60
2018-05-10T11:59:35.078Z,97.90
2018-05-10T12:02:03.352Z,98.30
2018-05-10T12:04:30.961Z,98.20
2018-05-10T12:06:58.465Z,98.40
2018-05-10T12:09:26.809Z,98.40
2018-05-10T12:11:54.289Z,98.40
2018-05-10T12:14:21.776Z,98.90
2018-05-10T12:16:50.044Z,98.70
2018-05-10T12:19:19.615Z,98.80
2018-05-10T12:21:47.155Z,98.80
2018-05-10T12:24:14.668Z,99.20
2018-05-10T12:26:42.938Z,99.50
2018-05-10T12:29:11.693Z,99.50
2018-05-10T12:31:39.278Z,99.40
2018-05-10T12:34:07.995Z,99.90
2018-05-10T12:36:36.234Z,99.90
2018-05-10T12:39:03.761Z,99.90
2018-05-10T12:41:31.291Z,99.90
2018-05-10T12:43:58.784Z,99.90
2018-05-10T12:46:27.164Z,99.90
2018-05-10T12:48:54.647Z,99.90
2018-05-10T12:51:22.141Z,99.90
2018-05-10T12:53:50.387Z,99.90
2018-05-10T12:56:18.000Z,99.90
2018-05-10T12:58:46.411Z,99.90
2018-05-10T13:01:14.024Z,99.90
2018-05-10T13:03:42.285Z,99.90
2018-05-10T13:06:09.764Z,99.90
2018-05-10T13:09:15.892Z,99.90
2018-05-10T13:11:44.907Z,99.90
2018-05-10T13:14:13.039Z,99.90
2018-05-10T13:16:40.877Z,99.90
2018-05-10T13:19:08.376Z,99.90
2018-05-10T13:21:35.869Z,99.90
2018-05-10T13:24:04.127Z,99.90
2018-05-10T13:26:31.613Z,99.90
2018-05-10T13:28:59.992Z,99.90
2018-05-10T13:31:27.422Z,99.90
2018-05-10T13:33:55.737Z,99.90
2018-05-10T13:36:24.283Z,99.90
2018-05-10T13:38:53.284Z,99.90
2018-05-10T13:41:21.659Z,99.90
2018-05-10T13:43:50.163Z,99.90
2018-05-10T13:46:18.625Z,99.90
2018-05-10T13:48:46.941Z,99.90
2018-05-10T13:51:14.428Z,99.90
2018-05-10T13:53:42.416Z,99.90
2018-05-10T13:56:09.962Z,99.90
2018-05-10T13:58:37.445Z,99.90
2018-05-10T14:01:05.288Z,99.80
2018-05-10T14:03:33.175Z,99.50
2018-05-10T14:06:02.976Z,99.50
2018-05-10T14:08:31.247Z,99.70
2018-05-10T14:10:58.730Z,99.80
2018-05-10T14:13:27.053Z,99.70
2018-05-10T14:15:54.743Z,99.90
2018-05-10T14:18:22.835Z,99.80
2018-05-10T14:20:50.406Z,99.90
2018-05-10T14:23:18.236Z,99.80
2018-05-10T14:25:45.732Z,99.70
2018-05-10T14:28:13.227Z,99.60
2018-05-10T14:30:41.255Z,99.50
2018-05-10T14:33:08.835Z,99.50
2018-05-10T14:35:36.333Z,99.80
2018-05-10T14:38:05.152Z,99.50
2018-05-10T14:40:32.666Z,99.40
2018-05-10T14:43:00.271Z,99.20
2018-05-10T14:45:29.266Z,99.20
2018-05-10T14:47:56.830Z,98.60
2018-05-10T14:50:24.965Z,98.80
2018-05-10T14:52:52.460Z,97.60
2018-05-10T14:55:19.981Z,97.10
2018-05-10T14:57:47.528Z,97.00
2018-05-10T15:00:15.094Z,96.30
2018-05-10T15:02:42.683Z,96.50
2018-05-10T15:05:10.470Z,95.60
2018-05-10T15:07:38.796Z,95.20
2018-05-10T15:10:06.341Z,95.10
2018-05-10T15:12:34.685Z,94.90
2018-05-10T15:15:02.419Z,94.90
2018-05-10T15:17:29.913Z,95.10
2018-05-10T15:19:57.405Z,94.70
2018-05-10T15:22:25.660Z,94.50
2018-05-10T15:24:53.147Z,94.40
2018-05-10T15:27:20.834Z,94.50
2018-05-10T15:29:48.322Z,94.50
2018-05-10T15:32:15.912Z,94.30
2018-05-10T15:34:44.182Z,94.00
2018-05-10T15:37:12.483Z,94.00
2018-05-10T15:39:39.992Z,94.00
2018-05-10T15:42:07.524Z,94.40
2018-05-10T15:44:35.016Z,93.60
2018-05-10T15:47:02.574Z,93.70
2018-05-10T15:49:30.886Z,93.50
2018-05-10T15:51:59.162Z,93.50
2018-05-10T15:54:26.851Z,93.50
2018-05-10T15:56:54.399Z,93.40
2018-05-10T15:59:21.960Z,93.80
2018-05-10T16:01:49.476Z,93.90
2018-05-10T16:04:16.967Z,93.90
2018-05-10T16:06:45.294Z,93.80
2018-05-10T16:09:12.763Z,93.70
2018-05-10T16:11:40.304Z,93.00
2018-05-10T16:14:07.780Z,93.20
2018-05-10T16:16:35.342Z,92.60
2018-05-10T16:19:02.896Z,91.40
2018-05-10T16:21:30.396Z,91.20
2018-05-10T16:23:58.721Z,90.10
2018-05-10T16:26:26.268Z,90.10
2018-05-10T16:28:53.812Z,90.10
2018-05-10T16:31:21.310Z,90.20
2018-05-10T16:33:48.810Z,90.20
2018-05-10T16:36:17.064Z,90.30
2018-05-10T16:38:45.356Z,90.30
2018-05-10T16:41:13.596Z,90.80
2018-05-10T16:43:41.100Z,90.80
2018-05-10T16:46:09.436Z,90.50
2018-05-10T16:48:36.916Z,90.40
2018-05-10T16:51:04.485Z,90.70
2018-05-10T16:53:32.772Z,90.80
2018-05-10T16:56:01.138Z,91.10
2018-05-10T16:58:29.392Z,91.10
2018-05-10T17:00:56.866Z,91.00
2018-05-10T17:03:25.142Z,90.80
2018-05-10T17:05:53.398Z,91.10
2018-05-10T17:08:20.886Z,91.10
2018-05-10T17:10:49.155Z,90.70
2018-05-10T17:13:16.664Z,90.70
2018-05-10T17:15:44.159Z,90.60
2018-05-10T17:18:11.624Z,90.60
2018-05-10T17:20:39.895Z,90.40
2018-05-10T17:23:07.365Z,90.40
2018-05-10T17:25:34.849Z,90.50
2018-05-10T17:28:03.094Z,90.60
2018-05-10T17:30:31.359Z,90.70
2018-05-10T17:32:58.845Z,90.70
2018-05-10T17:35:27.092Z,90.40
2018-05-10T17:37:54.589Z,90.30
2018-05-10T17:40:22.824Z,90.30
2018-05-10T17:42:50.379Z,90.20
2018-05-10T17:45:17.849Z,90.20
2018-05-10T17:47:45.328Z,90.30
2018-05-10T17:50:12.932Z,90.10
2018-05-10T17:52:40.447Z,90.00
2018-05-10T17:55:08.054Z,89.90
2018-05-10T17:57:36.297Z,88.90
2018-05-10T18:00:04.539Z,88.00
2018-05-10T18:02:32.002Z,88.00
2018-05-10T18:04:59.493Z,88.30
2018-05-10T18:07:27.803Z,87.40
2018-05-10T18:09:55.326Z,87.40
2018-05-10T18:12:23.735Z,87.70
2018-05-10T18:14:51.210Z,87.60
2018-05-10T18:17:18.761Z,87.80
2018-05-10T18:19:46.378Z,87.80
2018-05-10T18:22:13.900Z,88.10
2018-05-10T18:24:41.440Z,88.20
2018-05-10T18:27:08.977Z,88.60
2018-05-10T18:29:36.480Z,89.00
2018-05-10T18:32:03.949Z,89.30
2018-05-10T18:34:31.424Z,89.80
2018-05-10T18:37:00.383Z,90.10
2018-05-10T18:39:27.874Z,90.10
2018-05-10T18:41:56.857Z,90.00
2018-05-10T18:44:24.356Z,89.90
2018-05-10T18:46:52.649Z,90.50
2018-05-10T18:49:21.206Z,90.50
2018-05-10T18:51:49.486Z,90.70
2018-05-10T18:54:17.721Z,90.90
2018-05-10T18:56:45.196Z,90.90
2018-05-10T18:59:14.168Z,91.10
2018-05-10T19:01:41.712Z,91.10
2018-05-10T19:04:11.125Z,91.30
2018-05-10T19:06:38.596Z,91.30
2018-05-10T19:09:06.075Z,91.50
2018-05-10T19:11:34.316Z,91.80
2018-05-10T19:14:01.803Z,91.50
2018-05-10T19:16:29.316Z,91.50
2018-05-10T19:18:56.872Z,91.40
2018-05-10T19:21:24.384Z,91.50
2018-05-10T19:23:52.646Z,91.30
2018-05-10T19:26:20.180Z,91.30
2018-05-10T19:28:48.376Z,91.40
2018-05-10T19:31:15.884Z,91.40
2018-05-10T19:33:43.396Z,91.40
2018-05-10T19:36:10.865Z,91.40
2018-05-10T19:38:38.394Z,91.50
2018-05-10T19:41:05.946Z,91.50
2018-05-10T19:43:33.436Z,91.40
2018-05-10T19:46:00.914Z,91.40
2018-05-10T19:48:30.188Z,91.20
2018-05-10T19:50:57.657Z,91.20
2018-05-10T19:53:25.129Z,91.20
2018-05-10T19:55:53.383Z,91.30
2018-05-10T19:58:20.854Z,91.20
2018-05-10T20:00:49.840Z,91.10
2018-05-10T20:03:17.305Z,91.10
2018-05-10T20:05:46.327Z,91.20
2018-05-10T20:08:14.574Z,91.20
2018-05-10T20:10:42.036Z,91.20
2018-05-10T20:13:09.536Z,91.60
2018-05-10T20:15:37.011Z,91.30
2018-05-10T20:18:06.789Z,91.50
2018-05-10T20:20:34.285Z,91.60
2018-05-10T20:23:01.764Z,91.80
2018-05-10T20:25:29.220Z,91.90
2018-05-10T20:27:56.746Z,92.00
2018-05-10T20:30:24.237Z,92.10
2018-05-10T20:32:51.713Z,92.30
2018-05-10T20:35:19.191Z,92.40
2018-05-10T20:37:47.433Z,92.60
2018-05-10T20:40:14.941Z,92.60
2018-05-10T20:42:42.423Z,92.60
2018-05-10T20:45:10.015Z,92.70
2018-05-10T20:47:37.507Z,92.90
2018-05-10T20:50:05.809Z,93.00
2018-05-10T20:52:33.303Z,93.00
2018-05-10T20:55:00.831Z,93.00
2018-05-10T20:57:29.045Z,93.10
2018-05-10T20:59:56.515Z,93.10
2018-05-10T21:02:23.971Z,93.30
2018-05-10T21:04:51.457Z,93.50
2018-05-10T21:07:19.704Z,93.80
2018-05-10T21:09:47.213Z,93.70
2018-05-10T21:12:26.516Z,94.00
2018-05-10T21:14:54.780Z,94.50
2018-05-10T21:17:23.021Z,95.00
2018-05-10T21:19:50.496Z,94.80
2018-05-10T21:22:17.977Z,95.10
2018-05-10T21:24:45.436Z,95.30
2018-05-10T21:27:13.703Z,95.90
2018-05-10T21:29:41.256Z,95.70
2018-05-10T21:32:08.789Z,95.90
2018-05-10T21:34:36.264Z,96.40
2018-05-10T21:37:04.923Z,96.20
2018-05-10T21:39:32.412Z,96.40
2018-05-10T21:41:59.884Z,96.70
2018-05-10T21:44:27.371Z,96.90
2018-05-10T21:46:55.655Z,97.00
2018-05-10T21:49:35.228Z,97.00
2018-05-10T21:52:02.725Z,97.20
2018-05-10T21:54:30.249Z,97.40
2018-05-10T21:56:57.739Z,97.90
2018-05-10T21:59:25.224Z,97.70
2018-05-10T22:01:52.726Z,97.80
2018-05-10T22:04:20.188Z,97.90
2018-05-10T22:06:47.720Z,98.10
2018-05-10T22:09:15.955Z,98.20
2018-05-10T22:11:44.206Z,98.50
2018-05-10T22:14:11.703Z,98.30
2018-05-10T22:16:39.927Z,98.60
2018-05-10T22:19:07.451Z,98.60
2018-05-10T22:21:34.944Z,98.80
2018-05-10T22:24:02.434Z,99.10
2018-05-10T22:26:29.904Z,99.10
2018-05-10T22:28:58.131Z,99.50
2018-05-10T22:31:25.609Z,99.50
2018-05-10T22:33:53.064Z,99.60
2018-05-10T22:36:20.548Z,99.80
2018-05-10T22:38:48.004Z,99.90
2018-05-10T22:41:15.483Z,99.90
2018-05-10T22:43:43.714Z,99.90
2018-05-10T22:46:11.184Z,99.90
2018-05-10T22:48:38.676Z,99.90
2018-05-10T22:51:06.910Z,99.90
2018-05-10T22:53:34.388Z,99.90
2018-05-10T22:56:01.939Z,99.90
2018-05-10T22:58:30.104Z,99.90
2018-05-10T23:00:57.575Z,99.90
2018-05-10T23:03:25.036Z,99.90
2018-05-10T23:05:52.515Z,99.90
2018-05-10T23:08:20.744Z,99.90
2018-05-10T23:10:48.226Z,99.90
2018-05-10T23:13:15.734Z,99.90
2018-05-10T23:15:43.222Z,99.90
2018-05-10T23:18:10.694Z,99.90
2018-05-10T23:20:38.196Z,99.90
2018-05-10T23:23:05.688Z,99.90
2018-05-10T23:25:33.156Z,99.90
2018-05-10T23:28:00.632Z,99.90
2018-05-10T23:30:28.094Z,99.90
2018-05-10T23:32:55.568Z,99.90
2018-05-10T23:35:23.803Z,99.90
2018-05-10T23:37:51.263Z,99.90
2018-05-10T23:40:18.752Z,99.90
2018-05-10T23:42:46.983Z,99.90
2018-05-10T23:47:25.520Z,99.90
2018-05-10T23:49:53.012Z,99.90
2018-05-10T23:52:20.481Z,99.90
2018-05-10T23:54:48.713Z,99.90
2018-05-10T23:57:16.211Z,99.90
2018-05-10T23:59:44.464Z,99.90
